sensor_id;sensor_type;location;lat;lon;timestamp;pressure;altitude;pressure_sealevel;temperature;humidity
46876;BME280;32866;50.160;14.768;2023-04-01T00:00:27;97734.88;;;8.80;100.00
46876;BME280;32866;50.160;14.768;2023-04-01T00:02:53;97697.44;;;8.47;100.00
46876;BME280;32866;50.160;14.768;2023-04-01T00:05:18;97694.34;;;8.54;100.00
46876;BME280;32866;50.160;14.768;2023-04-01T00:07:45;97689.38;;;8.53;100.00
46876;BME280;32866;50.160;14.768;2023-04-01T00:10:11;97725.78;;;8.74;100.00
46876;BME280;32866;50.160;14.768;2023-04-01T00:12:37;97720.94;;;8.78;100.00
46876;BME280;32866;50.160;14.768;2023-04-01T00:15:05;97721.69;;;8.79;100.00
46876;BME280;32866;50.160;14.768;2023-04-01T00:17:30;97675.88;;;8.49;100.00
46876;BME280;32866;50.160;14.768;2023-04-01T00:19:56;97722.88;;;8.78;100.00
46876;BME280;32866;50.160;14.768;2023-04-01T00:22:25;97716.22;;;8.79;100.00
46876;BME280;32866;50.160;14.768;2023-04-01T00:24:52;97713.59;;;8.84;100.00
46876;BME280;32866;50.160;14.768;2023-04-01T00:27:17;97720.16;;;8.78;100.00
46876;BME280;32866;50.160;14.768;2023-04-01T00:29:44;97695.84;;;8.65;100.00
46876;BME280;32866;50.160;14.768;2023-04-01T00:32:09;97716.22;;;8.79;100.00
46876;BME280;32866;50.160;14.768;2023-04-01T00:34:35;97709.13;;;8.72;100.00
46876;BME280;32866;50.160;14.768;2023-04-01T00:37:00;97703.03;;;8.77;100.00
46876;BME280;32866;50.160;14.768;2023-04-01T00:39:29;97707.44;;;8.75;100.00
46876;BME280;32866;50.160;14.768;2023-04-01T00:41:54;97680.72;;;8.54;100.00
46876;BME280;32866;50.160;14.768;2023-04-01T00:44:26;97703.59;;;8.81;100.00
46876;BME280;32866;50.160;14.768;2023-04-01T00:46:52;97722.13;;;8.77;100.00
46876;BME280;32866;50.160;14.768;2023-04-01T00:49:19;97704.59;;;8.69;100.00
46876;BME280;32866;50.160;14.768;2023-04-01T00:51:47;97706.63;;;8.83;100.00
46876;BME280;32866;50.160;14.768;2023-04-01T00:54:16;97705.28;;;8.79;100.00
46876;BME280;32866;50.160;14.768;2023-04-01T00:56:48;97712.09;;;8.83;100.00
46876;BME280;32866;50.160;14.768;2023-04-01T00:59:21;97713.75;;;8.81;100.00
46876;BME280;32866;50.160;14.768;2023-04-01T01:01:47;97668.28;;;8.53;100.00
46876;BME280;32866;50.160;14.768;2023-04-01T01:04:30;97705.66;;;8.86;100.00
46876;BME280;32866;50.160;14.768;2023-04-01T01:09:58;97708.91;;;8.85;100.00
46876;BME280;32866;50.160;14.768;2023-04-01T01:12:30;97705.66;;;8.86;100.00
46876;BME280;32866;50.160;14.768;2023-04-01T01:18:21;97691.00;;;8.84;100.00
46876;BME280;32866;50.160;14.768;2023-04-01T01:34:29;97714.09;;;8.98;100.00
46876;BME280;32866;50.160;14.768;2023-04-01T01:37:10;97709.69;;;9.00;100.00
46876;BME280;32866;50.160;14.768;2023-04-01T01:39:39;97704.41;;;8.97;100.00
46876;BME280;32866;50.160;14.768;2023-04-01T01:42:08;97707.69;;;9.01;100.00
46876;BME280;32866;50.160;14.768;2023-04-01T01:44:35;97686.81;;;8.73;100.00
46876;BME280;32866;50.160;14.768;2023-04-01T01:47:03;97676.06;;;8.70;100.00
46876;BME280;32866;50.160;14.768;2023-04-01T01:49:29;97691.53;;;8.88;100.00
46876;BME280;32866;50.160;14.768;2023-04-01T01:51:57;97693.44;;;8.82;100.00
46876;BME280;32866;50.160;14.768;2023-04-01T01:54:23;97667.75;;;8.64;100.00
46876;BME280;32866;50.160;14.768;2023-04-01T01:56:55;97705.91;;;8.98;100.00
46876;BME280;32866;50.160;14.768;2023-04-01T01:59:25;97709.47;;;8.89;100.00
46876;BME280;32866;50.160;14.768;2023-04-01T02:01:55;97708.72;;;8.88;100.00
46876;BME280;32866;50.160;14.768;2023-04-01T02:04:22;97712.38;;;8.85;100.00
46876;BME280;32866;50.160;14.768;2023-04-01T02:07:22;97705.66;;;8.86;100.00
46876;BME280;32866;50.160;14.768;2023-04-01T02:09:49;97679.78;;;8.58;100.00
46876;BME280;32866;50.160;14.768;2023-04-01T02:12:15;97715.50;;;8.69;100.00
46876;BME280;32866;50.160;14.768;2023-04-01T02:14:55;97717.19;;;8.66;100.00
46876;BME280;32866;50.160;14.768;2023-04-01T02:17:32;97714.63;;;8.63;100.00
46876;BME280;32866;50.160;14.768;2023-04-01T02:20:00;97718.78;;;8.58;100.00
46876;BME280;32866;50.160;14.768;2023-04-01T02:22:28;97718.34;;;8.50;100.00
46876;BME280;32866;50.160;14.768;2023-04-01T02:24:58;97717.16;;;8.42;100.00
46876;BME280;32866;50.160;14.768;2023-04-01T02:27:24;97697.69;;;8.25;100.00
46876;BME280;32866;50.160;14.768;2023-04-01T02:29:51;97701.22;;;8.16;100.00
46876;BME280;32866;50.160;14.768;2023-04-01T02:32:19;97719.94;;;8.33;100.00
46876;BME280;32866;50.160;14.768;2023-04-01T02:34:46;97728.13;;;8.33;100.00
46876;BME280;32866;50.160;14.768;2023-04-01T02:37:12;97725.69;;;8.35;100.00
46876;BME280;32866;50.160;14.768;2023-04-01T02:39:38;97730.25;;;8.29;100.00
46876;BME280;32866;50.160;14.768;2023-04-01T02:42:04;97729.25;;;8.17;100.00
46876;BME280;32866;50.160;14.768;2023-04-01T02:44:30;97732.53;;;8.30;100.00
46876;BME280;32866;50.160;14.768;2023-04-01T02:46:55;97708.88;;;8.03;100.00
46876;BME280;32866;50.160;14.768;2023-04-01T02:49:20;97746.63;;;8.29;100.00
46876;BME280;32866;50.160;14.768;2023-04-01T02:51:46;97698.25;;;7.96;100.00
46876;BME280;32866;50.160;14.768;2023-04-01T02:54:12;97734.69;;;8.26;100.00
46876;BME280;32866;50.160;14.768;2023-04-01T02:56:37;97722.63;;;8.09;100.00
46876;BME280;32866;50.160;14.768;2023-04-01T02:59:03;97739.50;;;8.31;100.00
46876;BME280;32866;50.160;14.768;2023-04-01T03:01:28;97747.53;;;8.35;100.00
46876;BME280;32866;50.160;14.768;2023-04-01T03:03:53;97714.16;;;8.07;100.00
46876;BME280;32866;50.160;14.768;2023-04-01T03:06:19;97737.09;;;8.24;100.00
46876;BME280;32866;50.160;14.768;2023-04-01T03:08:44;97753.56;;;8.39;100.00
46876;BME280;32866;50.160;14.768;2023-04-01T03:11:10;97745.09;;;8.37;100.00
46876;BME280;32866;50.160;14.768;2023-04-01T03:13:36;97721.25;;;8.13;100.00
46876;BME280;32866;50.160;14.768;2023-04-01T03:16:01;97745.66;;;8.41;100.00
46876;BME280;32866;50.160;14.768;2023-04-01T03:18:27;97732.72;;;8.17;100.00
46876;BME280;32866;50.160;14.768;2023-04-01T03:20:52;97735.44;;;8.27;100.00
46876;BME280;32866;50.160;14.768;2023-04-01T03:23:17;97730.19;;;8.14;100.00
46876;BME280;32866;50.160;14.768;2023-04-01T03:25:45;97760.25;;;8.38;100.00
46876;BME280;32866;50.160;14.768;2023-04-01T03:28:10;97734.84;;;8.23;100.00
46876;BME280;32866;50.160;14.768;2023-04-01T03:30:35;97743.28;;;8.34;100.00
46876;BME280;32866;50.160;14.768;2023-04-01T03:33:01;97719.44;;;8.10;100.00
46876;BME280;32866;50.160;14.768;2023-04-01T03:35:27;97749.81;;;8.36;100.00
46876;BME280;32866;50.160;14.768;2023-04-01T03:37:53;97733.69;;;8.14;100.00
46876;BME280;32866;50.160;14.768;2023-04-01T03:40:19;97757.22;;;8.36;100.00
46876;BME280;32866;50.160;14.768;2023-04-01T03:42:45;97755.13;;;8.31;100.00
46876;BME280;32866;50.160;14.768;2023-04-01T03:45:11;97756.03;;;8.28;100.00
46876;BME280;32866;50.160;14.768;2023-04-01T03:47:39;97762.25;;;8.28;100.00
46876;BME280;32866;50.160;14.768;2023-04-01T03:50:06;97759.81;;;8.30;100.00
46876;BME280;32866;50.160;14.768;2023-04-01T03:52:32;97761.03;;;8.29;100.00
46876;BME280;32866;50.160;14.768;2023-04-01T03:54:57;97756.19;;;8.24;100.00
46876;BME280;32866;50.160;14.768;2023-04-01T03:57:23;97727.66;;;8.01;100.00
46876;BME280;32866;50.160;14.768;2023-04-01T03:59:48;97732.78;;;8.08;100.00
46876;BME280;32866;50.160;14.768;2023-04-01T04:02:13;97750.50;;;8.13;100.00
46876;BME280;32866;50.160;14.768;2023-04-01T04:04:39;97743.69;;;8.08;100.00
46876;BME280;32866;50.160;14.768;2023-04-01T04:07:05;97735.97;;;8.07;100.00
46876;BME280;32866;50.160;14.768;2023-04-01T04:09:31;97736.13;;;8.03;100.00
46876;BME280;32866;50.160;14.768;2023-04-01T04:11:56;97771.50;;;8.31;100.00
46876;BME280;32866;50.160;14.768;2023-04-01T04:14:22;97784.56;;;8.27;100.00
46876;BME280;32866;50.160;14.768;2023-04-01T04:16:48;97775.63;;;8.26;100.00
46876;BME280;32866;50.160;14.768;2023-04-01T04:19:13;97757.34;;;7.99;100.00
46876;BME280;32866;50.160;14.768;2023-04-01T04:21:40;97775.63;;;8.26;100.00
46876;BME280;32866;50.160;14.768;2023-04-01T04:24:05;97776.84;;;8.16;100.00
46876;BME280;32866;50.160;14.768;2023-04-01T04:26:31;97748.53;;;8.04;100.00
46876;BME280;32866;50.160;14.768;2023-04-01T04:28:56;97753.69;;;8.11;100.00
46876;BME280;32866;50.160;14.768;2023-04-01T04:31:23;97784.22;;;8.34;100.00
46876;BME280;32866;50.160;14.768;2023-04-01T04:33:49;97756.59;;;8.08;100.00
46876;BME280;32866;50.160;14.768;2023-04-01T04:36:15;97784.50;;;8.36;100.00
46876;BME280;32866;50.160;14.768;2023-04-01T04:38:40;97770.31;;;8.23;100.00
46876;BME280;32866;50.160;14.768;2023-04-01T04:41:15;97795.41;;;8.36;100.00
46876;BME280;32866;50.160;14.768;2023-04-01T04:43:47;97792.41;;;8.34;100.00
46876;BME280;32866;50.160;14.768;2023-04-01T04:46:13;97793.75;;;8.39;100.00
46876;BME280;32866;50.160;14.768;2023-04-01T04:48:38;97759.44;;;8.13;100.00
46876;BME280;32866;50.160;14.768;2023-04-01T04:51:04;97760.03;;;8.17;100.00
46876;BME280;32866;50.160;14.768;2023-04-01T04:53:29;97798.16;;;8.45;100.00
46876;BME280;32866;50.160;14.768;2023-04-01T04:55:55;97757.59;;;8.20;100.00
46876;BME280;32866;50.160;14.768;2023-04-01T04:58:20;97793.44;;;8.46;100.00
46876;BME280;32866;50.160;14.768;2023-04-01T05:00:46;97797.81;;;8.52;100.00
46876;BME280;32866;50.160;14.768;2023-04-01T05:03:12;97799.91;;;8.58;100.00
46876;BME280;32866;50.160;14.768;2023-04-01T05:05:38;97801.78;;;8.51;100.00
46876;BME280;32866;50.160;14.768;2023-04-01T05:08:03;97806.91;;;8.59;100.00
46876;BME280;32866;50.160;14.768;2023-04-01T05:10:29;97773.94;;;8.29;100.00
46876;BME280;32866;50.160;14.768;2023-04-01T05:12:55;97811.19;;;8.50;100.00
46876;BME280;32866;50.160;14.768;2023-04-01T05:15:30;97814.16;;;8.62;100.00
46876;BME280;32866;50.160;14.768;2023-04-01T05:17:55;97799.03;;;8.42;100.00
46876;BME280;32866;50.160;14.768;2023-04-01T05:20:20;97789.34;;;8.41;100.00
46876;BME280;32866;50.160;14.768;2023-04-01T05:22:46;97814.78;;;8.57;100.00
46876;BME280;32866;50.160;14.768;2023-04-01T05:25:11;97779.69;;;8.31;100.00
46876;BME280;32866;50.160;14.768;2023-04-01T05:27:37;97799.81;;;8.43;100.00
46876;BME280;32866;50.160;14.768;2023-04-01T05:30:02;97823.56;;;8.61;100.00
46876;BME280;32866;50.160;14.768;2023-04-01T05:32:28;97782.09;;;8.38;100.00
46876;BME280;32866;50.160;14.768;2023-04-01T05:34:53;97784.97;;;8.34;100.00
46876;BME280;32866;50.160;14.768;2023-04-01T05:37:19;97819.63;;;8.62;100.00
46876;BME280;32866;50.160;14.768;2023-04-01T05:39:45;97821.94;;;8.54;100.00
46876;BME280;32866;50.160;14.768;2023-04-01T05:42:10;97820.84;;;8.61;100.00
46876;BME280;32866;50.160;14.768;2023-04-01T05:44:36;97817.06;;;8.58;100.00
46876;BME280;32866;50.160;14.768;2023-04-01T05:47:02;97819.28;;;8.69;100.00
46876;BME280;32866;50.160;14.768;2023-04-01T05:49:27;97822.91;;;8.75;100.00
46876;BME280;32866;50.160;14.768;2023-04-01T05:51:52;97789.16;;;8.54;100.00
46876;BME280;32866;50.160;14.768;2023-04-01T05:54:19;97791.50;;;8.70;100.00
46876;BME280;32866;50.160;14.768;2023-04-01T05:56:44;97819.19;;;8.87;100.00
46876;BME280;32866;50.160;14.768;2023-04-01T05:59:11;97804.06;;;8.77;100.00
46876;BME280;32866;50.160;14.768;2023-04-01T06:01:36;97820.00;;;9.03;100.00
46876;BME280;32866;50.160;14.768;2023-04-01T06:04:02;97830.75;;;9.06;100.00
46876;BME280;32866;50.160;14.768;2023-04-01T06:06:29;97833.34;;;9.10;100.00
46876;BME280;32866;50.160;14.768;2023-04-01T06:08:57;97831.44;;;9.16;100.00
46876;BME280;32866;50.160;14.768;2023-04-01T06:17:59;97811.34;;;9.28;100.00
46876;BME280;32866;50.160;14.768;2023-04-01T06:20:42;97842.53;;;9.61;100.00
46876;BME280;32866;50.160;14.768;2023-04-01T06:29:13;97847.59;;;9.53;100.00
46876;BME280;32866;50.160;14.768;2023-04-01T06:42:57;97847.41;;;9.57;100.00
46876;BME280;32866;50.160;14.768;2023-04-01T06:56:06;97852.81;;;9.66;100.00
46876;BME280;32866;50.160;14.768;2023-04-01T06:58:37;97853.13;;;9.83;100.00
46876;BME280;32866;50.160;14.768;2023-04-01T07:01:08;97857.19;;;9.88;100.00
46876;BME280;32866;50.160;14.768;2023-04-01T07:03:41;97862.69;;;10.02;100.00
46876;BME280;32866;50.160;14.768;2023-04-01T07:06:14;97862.97;;;10.05;100.00
46876;BME280;32866;50.160;14.768;2023-04-01T07:08:43;97865.13;;;10.15;100.00
46876;BME280;32866;50.160;14.768;2023-04-01T07:11:15;97869.78;;;10.24;100.00
46876;BME280;32866;50.160;14.768;2023-04-01T07:13:57;97868.53;;;10.25;100.00
46876;BME280;32866;50.160;14.768;2023-04-01T07:16:35;97860.97;;;10.20;100.00
46876;BME280;32866;50.160;14.768;2023-04-01T07:19:31;97874.28;;;10.27;100.00
46876;BME280;32866;50.160;14.768;2023-04-01T07:22:39;97875.44;;;10.35;100.00
46876;BME280;32866;50.160;14.768;2023-04-01T07:25:15;97876.56;;;10.29;100.00
46876;BME280;32866;50.160;14.768;2023-04-01T07:27:42;97885.72;;;10.55;100.00
46876;BME280;32866;50.160;14.768;2023-04-01T07:30:15;97884.69;;;10.68;100.00
46876;BME280;32866;50.160;14.768;2023-04-01T07:32:47;97878.38;;;10.62;100.00
46876;BME280;32866;50.160;14.768;2023-04-01T07:35:18;97883.38;;;10.48;100.00
46876;BME280;32866;50.160;14.768;2023-04-01T07:38:04;97884.91;;;10.49;100.00
46876;BME280;32866;50.160;14.768;2023-04-01T07:51:41;97899.81;;;10.33;100.00
46876;BME280;32866;50.160;14.768;2023-04-01T07:54:16;97898.66;;;10.25;100.00
46876;BME280;32866;50.160;14.768;2023-04-01T07:56:50;97903.78;;;10.32;100.00
46876;BME280;32866;50.160;14.768;2023-04-01T07:59:39;97904.91;;;10.40;100.00
46876;BME280;32866;50.160;14.768;2023-04-01T08:07:12;97913.94;;;10.17;100.00
46876;BME280;32866;50.160;14.768;2023-04-01T08:12:25;97894.75;;;9.87;100.00
46876;BME280;32866;50.160;14.768;2023-04-01T08:20:56;97907.97;;;9.64;100.00
46876;BME280;32866;50.160;14.768;2023-04-01T08:23:28;97914.19;;;9.65;100.00
46876;BME280;32866;50.160;14.768;2023-04-01T08:26:05;97913.50;;;9.79;100.00
46876;BME280;32866;50.160;14.768;2023-04-01T08:28:40;97909.88;;;9.73;100.00
46876;BME280;32866;50.160;14.768;2023-04-01T08:31:11;97916.97;;;9.80;100.00
46876;BME280;32866;50.160;14.768;2023-04-01T08:33:38;97908.13;;;9.85;100.00
46876;BME280;32866;50.160;14.768;2023-04-01T08:36:22;97915.81;;;9.96;100.00
46876;BME280;32866;50.160;14.768;2023-04-01T08:39:09;97914.41;;;10.00;100.00
46876;BME280;32866;50.160;14.768;2023-04-01T08:44:17;97915.34;;;10.12;100.00
46876;BME280;32866;50.160;14.768;2023-04-01T08:52:18;97910.97;;;10.60;100.00
46876;BME280;32866;50.160;14.768;2023-04-01T09:00:41;97917.09;;;11.20;100.00
46876;BME280;32866;50.160;14.768;2023-04-01T09:06:31;97907.09;;;11.78;100.00
46876;BME280;32866;50.160;14.768;2023-04-01T09:09:09;97909.66;;;12.08;100.00
46876;BME280;32866;50.160;14.768;2023-04-01T09:20:05;97909.38;;;12.90;100.00
46876;BME280;32866;50.160;14.768;2023-04-01T09:25:26;97921.72;;;13.44;100.00
46876;BME280;32866;50.160;14.768;2023-04-01T09:28:02;97918.22;;;13.43;100.00
46876;BME280;32866;50.160;14.768;2023-04-01T09:30:33;97918.75;;;13.10;100.00
46876;BME280;32866;50.160;14.768;2023-04-01T09:35:39;97917.78;;;12.43;100.00
46876;BME280;32866;50.160;14.768;2023-04-01T09:38:30;97911.84;;;12.24;100.00
46876;BME280;32866;50.160;14.768;2023-04-01T09:41:15;97915.81;;;11.97;100.00
46876;BME280;32866;50.160;14.768;2023-04-01T09:46:37;97914.22;;;11.91;100.00
46876;BME280;32866;50.160;14.768;2023-04-01T09:49:37;97920.34;;;11.80;100.00
46876;BME280;32866;50.160;14.768;2023-04-01T09:52:18;97915.13;;;11.82;100.00
46876;BME280;32866;50.160;14.768;2023-04-01T10:03:24;97925.09;;;12.52;100.00
46876;BME280;32866;50.160;14.768;2023-04-01T10:20:05;97932.03;;;13.54;100.00
46876;BME280;32866;50.160;14.768;2023-04-01T10:25:19;97922.44;;;13.33;100.00
46876;BME280;32866;50.160;14.768;2023-04-01T10:36:56;97916.94;;;12.64;100.00
46876;BME280;32866;50.160;14.768;2023-04-01T10:39:48;97913.53;;;12.48;100.00
46876;BME280;32866;50.160;14.768;2023-04-01T10:42:38;97916.59;;;12.50;100.00
46876;BME280;32866;50.160;14.768;2023-04-01T10:45:33;97917.88;;;12.29;100.00
46876;BME280;32866;50.160;14.768;2023-04-01T10:48:12;97925.41;;;12.34;100.00
46876;BME280;32866;50.160;14.768;2023-04-01T10:56:35;97928.38;;;10.92;100.00
46876;BME280;32866;50.160;14.768;2023-04-01T10:59:21;97914.84;;;11.03;100.00
46876;BME280;32866;50.160;14.768;2023-04-01T11:02:19;97909.84;;;11.58;100.00
46876;BME280;32866;50.160;14.768;2023-04-01T11:30:33;97896.50;;;14.62;100.00
46876;BME280;32866;50.160;14.768;2023-04-01T11:36:14;97891.88;;;17.92;89.86
46876;BME280;32866;50.160;14.768;2023-04-01T11:38:52;97880.69;;;18.16;87.51
46876;BME280;32866;50.160;14.768;2023-04-01T11:41:43;97872.31;;;18.22;81.06
46876;BME280;32866;50.160;14.768;2023-04-01T11:44:26;97896.50;;;18.86;74.87
46876;BME280;32866;50.160;14.768;2023-04-01T11:50:10;97858.38;;;20.15;65.65
46876;BME280;32866;50.160;14.768;2023-04-01T11:55:35;97888.63;;;19.84;57.76
46876;BME280;32866;50.160;14.768;2023-04-01T12:01:19;97897.19;;;18.09;58.97
46876;BME280;32866;50.160;14.768;2023-04-01T12:06:48;97900.44;;;17.01;63.75
46876;BME280;32866;50.160;14.768;2023-04-01T12:12:52;97901.28;;;15.82;67.93
46876;BME280;32866;50.160;14.768;2023-04-01T12:18:17;97898.72;;;14.29;72.33
46876;BME280;32866;50.160;14.768;2023-04-01T12:20:49;97910.50;;;14.30;72.66
46876;BME280;32866;50.160;14.768;2023-04-01T12:23:52;97908.91;;;13.95;75.80
46876;BME280;32866;50.160;14.768;2023-04-01T12:26:44;97909.44;;;14.10;71.28
46876;BME280;32866;50.160;14.768;2023-04-01T12:29:49;97904.53;;;14.88;70.98
46876;BME280;32866;50.160;14.768;2023-04-01T12:32:27;97922.50;;;15.29;68.80
46876;BME280;32866;50.160;14.768;2023-04-01T12:35:24;97912.94;;;15.41;69.50
46876;BME280;32866;50.160;14.768;2023-04-01T12:52:10;97920.00;;;14.29;72.24
46876;BME280;32866;50.160;14.768;2023-04-01T12:54:55;97920.56;;;14.67;73.67
46876;BME280;32866;50.160;14.768;2023-04-01T13:11:39;97905.88;;;16.10;68.04
46876;BME280;32866;50.160;14.768;2023-04-01T13:17:24;97919.16;;;16.89;64.47
46876;BME280;32866;50.160;14.768;2023-04-01T13:25:06;97909.09;;;16.20;67.36
46876;BME280;32866;50.160;14.768;2023-04-01T13:27:44;97922.16;;;16.19;66.59
46876;BME280;32866;50.160;14.768;2023-04-01T13:30:39;97900.13;;;16.08;66.47
46876;BME280;32866;50.160;14.768;2023-04-01T14:02:56;97925.44;;;13.95;72.97
46876;BME280;32866;50.160;14.768;2023-04-01T14:05:48;97932.72;;;13.98;75.41
46876;BME280;32866;50.160;14.768;2023-04-01T14:14:18;97932.19;;;15.64;67.16
46876;BME280;32866;50.160;14.768;2023-04-01T14:16:55;97941.22;;;15.64;67.13
46876;BME280;32866;50.160;14.768;2023-04-01T14:28:07;97937.56;;;14.48;73.52
46876;BME280;32866;50.160;14.768;2023-04-01T14:36:37;97927.06;;;15.96;68.71
46876;BME280;32866;50.160;14.768;2023-04-01T14:42:32;97915.78;;;14.84;70.50
46876;BME280;32866;50.160;14.768;2023-04-01T14:45:18;97937.88;;;14.73;70.59
46876;BME280;32866;50.160;14.768;2023-04-01T14:50:50;97936.88;;;14.82;71.26
46876;BME280;32866;50.160;14.768;2023-04-01T14:55:55;97955.59;;;15.46;75.33
46876;BME280;32866;50.160;14.768;2023-04-01T14:58:23;97949.53;;;15.53;74.14
46876;BME280;32866;50.160;14.768;2023-04-01T15:15:24;97955.53;;;14.04;73.85
46876;BME280;32866;50.160;14.768;2023-04-01T15:18:08;97952.50;;;14.02;76.60
46876;BME280;32866;50.160;14.768;2023-04-01T15:26:21;97958.56;;;14.29;81.39
46876;BME280;32866;50.160;14.768;2023-04-01T15:29:00;97955.91;;;14.63;78.73
46876;BME280;32866;50.160;14.768;2023-04-01T15:31:43;97927.31;;;14.55;74.21
46876;BME280;32866;50.160;14.768;2023-04-01T15:34:35;97951.06;;;14.35;72.90
46876;BME280;32866;50.160;14.768;2023-04-01T15:44:53;97967.50;;;12.77;82.34
46876;BME280;32866;50.160;14.768;2023-04-01T15:49:56;97959.75;;;12.50;84.03
46876;BME280;32866;50.160;14.768;2023-04-01T15:55:26;97981.69;;;12.44;87.59
46876;BME280;32866;50.160;14.768;2023-04-01T15:58:06;97977.53;;;12.54;87.92
46876;BME280;32866;50.160;14.768;2023-04-01T16:00:47;97966.13;;;12.35;89.74
46876;BME280;32866;50.160;14.768;2023-04-01T16:11:21;97987.00;;;12.53;88.07
46876;BME280;32866;50.160;14.768;2023-04-01T16:22:06;97980.22;;;12.22;89.61
46876;BME280;32866;50.160;14.768;2023-04-01T16:27:49;97999.28;;;11.91;93.51
46876;BME280;32866;50.160;14.768;2023-04-01T16:36:34;98004.34;;;11.57;99.97
46876;BME280;32866;50.160;14.768;2023-04-01T16:44:50;98013.78;;;11.35;100.00
46876;BME280;32866;50.160;14.768;2023-04-01T16:47:22;98022.28;;;11.37;100.00
46876;BME280;32866;50.160;14.768;2023-04-01T16:50:21;98023.72;;;11.18;100.00
46876;BME280;32866;50.160;14.768;2023-04-01T16:56:44;98029.78;;;11.07;100.00
46876;BME280;32866;50.160;14.768;2023-04-01T17:01:29;98038.88;;;10.98;100.00
46876;BME280;32866;50.160;14.768;2023-04-01T17:04:06;98040.56;;;10.95;100.00
46876;BME280;32866;50.160;14.768;2023-04-01T17:06:53;98040.19;;;11.03;100.00
46876;BME280;32866;50.160;14.768;2023-04-01T17:15:28;98055.78;;;11.11;100.00
46876;BME280;32866;50.160;14.768;2023-04-01T17:20:56;98068.72;;;11.11;100.00
46876;BME280;32866;50.160;14.768;2023-04-01T17:44:59;98088.94;;;10.84;100.00
46876;BME280;32866;50.160;14.768;2023-04-01T17:53:11;98107.63;;;10.70;100.00
46876;BME280;32866;50.160;14.768;2023-04-01T17:55:46;98103.66;;;10.71;100.00
46876;BME280;32866;50.160;14.768;2023-04-01T17:58:22;98112.53;;;10.66;100.00
46876;BME280;32866;50.160;14.768;2023-04-01T18:15:08;98127.69;;;10.28;100.00
46876;BME280;32866;50.160;14.768;2023-04-01T18:18:03;98130.50;;;10.19;100.00
46876;BME280;32866;50.160;14.768;2023-04-01T18:20:35;98133.25;;;10.10;100.00
46876;BME280;32866;50.160;14.768;2023-04-01T18:23:19;98127.22;;;10.06;100.00
46876;BME280;32866;50.160;14.768;2023-04-01T18:25:48;98129.06;;;9.99;100.00
46876;BME280;32866;50.160;14.768;2023-04-01T18:31:08;98141.28;;;9.89;100.00
46876;BME280;32866;50.160;14.768;2023-04-01T18:38:49;98162.81;;;9.63;100.00
46876;BME280;32866;50.160;14.768;2023-04-01T18:41:42;98164.81;;;9.53;100.00
46876;BME280;32866;50.160;14.768;2023-04-01T18:44:30;98163.59;;;9.45;100.00
46876;BME280;32866;50.160;14.768;2023-04-01T18:49:52;98172.72;;;9.51;100.00
46876;BME280;32866;50.160;14.768;2023-04-01T18:52:34;98134.50;;;9.23;100.00
46876;BME280;32866;50.160;14.768;2023-04-01T18:57:27;98170.00;;;9.42;100.00
46876;BME280;32866;50.160;14.768;2023-04-01T19:00:13;98176.06;;;9.46;100.00
46876;BME280;32866;50.160;14.768;2023-04-01T19:02:46;98167.91;;;9.37;100.00
46876;BME280;32866;50.160;14.768;2023-04-01T19:07:55;98186.25;;;9.45;100.00
46876;BME280;32866;50.160;14.768;2023-04-01T19:13:10;98187.75;;;9.46;100.00
46876;BME280;32866;50.160;14.768;2023-04-01T19:15:52;98189.13;;;9.51;100.00
46876;BME280;32866;50.160;14.768;2023-04-01T19:21:11;98190.03;;;9.48;100.00
46876;BME280;32866;50.160;14.768;2023-04-01T19:26:39;98199.75;;;9.40;100.00
46876;BME280;32866;50.160;14.768;2023-04-01T19:37:27;98197.81;;;9.31;100.00
46876;BME280;32866;50.160;14.768;2023-04-01T19:40:35;98194.78;;;9.29;100.00
46876;BME280;32866;50.160;14.768;2023-04-01T19:49:06;98209.53;;;9.22;100.00
46876;BME280;32866;50.160;14.768;2023-04-01T19:59:27;98221.53;;;9.16;100.00
46876;BME280;32866;50.160;14.768;2023-04-01T20:04:48;98222.72;;;9.15;100.00
46876;BME280;32866;50.160;14.768;2023-04-01T20:07:26;98223.19;;;9.13;100.00
46876;BME280;32866;50.160;14.768;2023-04-01T20:13:01;98225.16;;;9.03;100.00
46876;BME280;32866;50.160;14.768;2023-04-01T20:15:41;98232.44;;;9.06;100.00
46876;BME280;32866;50.160;14.768;2023-04-01T20:18:18;98230.00;;;8.99;100.00
46876;BME280;32866;50.160;14.768;2023-04-01T20:20:57;98236.72;;;8.98;100.00
46876;BME280;32866;50.160;14.768;2023-04-01T20:23:40;98230.91;;;8.96;100.00
46876;BME280;32866;50.160;14.768;2023-04-01T20:26:10;98236.84;;;8.95;100.00
46876;BME280;32866;50.160;14.768;2023-04-01T20:28:43;98233.66;;;8.96;100.00
46876;BME280;32866;50.160;14.768;2023-04-01T20:31:23;98244.91;;;9.17;100.00
46876;BME280;32866;50.160;14.768;2023-04-01T20:34:25;98252.34;;;9.16;100.00
46876;BME280;32866;50.160;14.768;2023-04-01T20:39:58;98252.34;;;9.16;100.00
46876;BME280;32866;50.160;14.768;2023-04-01T20:45:17;98254.63;;;9.08;100.00
46876;BME280;32866;50.160;14.768;2023-04-01T20:50:50;98260.97;;;9.15;100.00
46876;BME280;32866;50.160;14.768;2023-04-01T20:53:43;98261.13;;;9.11;100.00
46876;BME280;32866;50.160;14.768;2023-04-01T20:56:31;98253.53;;;9.06;100.00
46876;BME280;32866;50.160;14.768;2023-04-01T21:07:34;98270.56;;;9.10;100.00
46876;BME280;32866;50.160;14.768;2023-04-01T21:18:49;98278.59;;;9.23;100.00
46876;BME280;32866;50.160;14.768;2023-04-01T21:29:40;98281.34;;;8.95;100.00
46876;BME280;32866;50.160;14.768;2023-04-01T21:57:31;98298.63;;;8.92;100.00
46876;BME280;32866;50.160;14.768;2023-04-01T22:00:09;98296.19;;;8.94;100.00
46876;BME280;32866;50.160;14.768;2023-04-01T22:02:51;98294.84;;;9.08;100.00
46876;BME280;32866;50.160;14.768;2023-04-01T22:05:28;98301.84;;;9.09;100.00